Time;durP1;ratioP1;P1;durP2;ratioP2;P2;SDS_P1;SDS_P2;PMS_P1;PMS_P2;Temp;Humidity;BMP_temperature;BMP_pressure;BME280_temperature;BME280_humidity;BME280_pressure;Samples;Min_cycle;Max_cycle;Signal;HPM_P1;HPM_P2
2021/04/25 00:04:15;;;;;;;10.37;4.97;;;;;;;;;;10485072;28;20269;-70
2021/04/25 00:09:19;;;;;;;10.67;4.93;;;;;;;;;;10489879;28;20200;-68
2021/04/25 00:14:21;;;;;;;10.80;5.13;;;;;;;;;;10486550;28;20674;-70
2021/04/25 00:19:22;;;;;;;10.37;5.10;;;;;;;;;;10486549;28;20203;-70
2021/04/25 00:24:25;;;;;;;14.27;5.57;;;;;;;;;;10491578;28;20606;-69
2021/04/25 00:29:26;;;;;;;11.27;5.07;;;;;;;;;;10488732;28;20246;-70
2021/04/25 00:34:28;;;;;;;11.47;5.13;;;;;;;;;;10490107;28;20283;-71
2021/04/25 00:39:30;;;;;;;11.83;5.20;;;;;;;;;;10485007;28;20189;-71
2021/04/25 00:44:32;;;;;;;11.77;4.40;;;;;;;;;;10484229;28;20208;-70
2021/04/25 00:49:34;;;;;;;11.40;5.20;;;;;;;;;;10478388;28;20496;-71
2021/04/25 00:54:38;;;;;;;12.57;5.03;;;;;;;;;;10491976;28;20196;-70
2021/04/25 00:59:40;;;;;;;11.07;4.73;;;;;;;;;;10481594;28;20208;-70
2021/04/25 01:04:42;;;;;;;10.47;5.07;;;;;;;;;;10481446;28;20193;-68
2021/04/25 01:09:44;;;;;;;10.60;4.47;;;;;;;;;;10488624;28;20317;-69
2021/04/25 01:14:46;;;;;;;12.43;5.10;;;;;;;;;;10485764;28;20254;-69
2021/04/25 01:19:47;;;;;;;10.17;4.73;;;;;;;;;;10484728;28;20197;-68
2021/04/25 01:24:50;;;;;;;8.70;4.17;;;;;;;;;;10488299;28;20220;-68
2021/04/25 01:29:52;;;;;;;10.67;4.60;;;;;;;;;;10482296;28;20220;-68
2021/04/25 01:34:53;;;;;;;10.03;4.50;;;;;;;;;;10486388;28;20208;-67
2021/04/25 01:39:56;;;;;;;12.00;4.93;;;;;;;;;;10481921;28;20231;-68
2021/04/25 01:44:58;;;;;;;10.27;4.33;;;;;;;;;;10484748;28;20224;-69
2021/04/25 01:49:59;;;;;;;10.47;5.07;;;;;;;;;;10487169;28;20272;-68
2021/04/25 01:55:03;;;;;;;12.07;5.17;;;;;;;;;;10485043;28;20196;-70
2021/04/25 02:00:06;;;;;;;10.90;4.50;;;;;;;;;;10486371;28;20208;-70
2021/04/25 02:05:08;;;;;;;10.00;4.90;;;;;;;;;;10476254;28;20344;-70
2021/04/25 02:10:11;;;;;;;10.10;4.87;;;;;;;;;;10487017;28;20212;-70
2021/04/25 02:15:13;;;;;;;10.27;5.00;;;;;;;;;;10500881;28;20199;-70
2021/04/25 02:20:15;;;;;;;12.97;5.27;;;;;;;;;;10487480;28;20219;-69
2021/04/25 02:25:18;;;;;;;11.43;4.93;;;;;;;;;;10481178;28;20188;-70
2021/04/25 02:30:21;;;;;;;10.77;4.77;;;;;;;;;;10487372;28;20273;-69
2021/04/25 02:35:23;;;;;;;12.10;5.40;;;;;;;;;;10482276;28;20210;-70
2021/04/25 02:40:27;;;;;;;13.93;5.23;;;;;;;;;;10484226;28;20253;-70
2021/04/25 02:45:29;;;;;;;11.87;5.50;;;;;;;;;;10477803;28;20303;-70
2021/04/25 02:50:33;;;;;;;11.27;5.70;;;;;;;;;;10487325;28;20220;-71
2021/04/25 02:55:36;;;;;;;10.53;5.07;;;;;;;;;;10485292;28;20212;-70
2021/04/25 03:00:37;;;;;;;10.13;5.37;;;;;;;;;;10480485;28;20291;-69
2021/04/25 03:05:39;;;;;;;12.37;5.20;;;;;;;;;;10485810;28;20658;-69
2021/04/25 03:10:41;;;;;;;10.43;5.20;;;;;;;;;;10484375;28;20527;-70
2021/04/25 03:15:43;;;;;;;11.63;5.70;;;;;;;;;;10482536;28;20663;-70
2021/04/25 03:20:44;;;;;;;11.13;5.47;;;;;;;;;;10479574;28;20212;-70
2021/04/25 03:25:47;;;;;;;10.60;5.63;;;;;;;;;;10485438;28;20197;-69
2021/04/25 03:30:48;;;;;;;11.77;5.47;;;;;;;;;;10485926;28;20236;-69
2021/04/25 03:35:50;;;;;;;13.70;6.53;;;;;;;;;;10480753;28;20184;-70
2021/04/25 03:40:52;;;;;;;12.60;6.07;;;;;;;;;;10480814;28;20204;-69
2021/04/25 03:45:54;;;;;;;13.63;6.70;;;;;;;;;;10480086;28;20253;-70
2021/04/25 03:50:56;;;;;;;12.67;6.47;;;;;;;;;;10481903;28;20220;-70
2021/04/25 03:55:59;;;;;;;12.57;6.30;;;;;;;;;;10483122;28;20199;-70
2021/04/25 04:01:01;;;;;;;12.83;6.47;;;;;;;;;;10484695;28;20996;-69
2021/04/25 04:06:02;;;;;;;13.83;6.50;;;;;;;;;;10480440;28;20698;-71
2021/04/25 04:11:05;;;;;;;11.87;6.67;;;;;;;;;;10482225;28;20373;-70
2021/04/25 04:16:07;;;;;;;13.57;7.13;;;;;;;;;;10485099;28;20189;-70
2021/04/25 04:21:08;;;;;;;12.87;6.80;;;;;;;;;;10470411;28;20729;-70
2021/04/25 04:26:11;;;;;;;13.03;7.00;;;;;;;;;;10485485;28;20228;-70
2021/04/25 04:31:13;;;;;;;13.70;7.13;;;;;;;;;;10480317;28;20220;-69
2021/04/25 04:36:14;;;;;;;12.07;6.47;;;;;;;;;;10493148;28;20196;-71
2021/04/25 04:41:17;;;;;;;14.33;6.80;;;;;;;;;;10490613;28;20236;-68
2021/04/25 04:46:18;;;;;;;15.77;7.53;;;;;;;;;;10474869;28;20288;-68
2021/04/25 04:51:20;;;;;;;15.70;7.90;;;;;;;;;;10492086;28;20221;-70
2021/04/25 04:56:22;;;;;;;14.57;7.63;;;;;;;;;;10489382;28;20545;-71
2021/04/25 05:01:24;;;;;;;11.97;7.03;;;;;;;;;;10491556;28;20567;-70
2021/04/25 05:06:26;;;;;;;13.60;7.60;;;;;;;;;;10490817;28;20227;-70
2021/04/25 05:11:28;;;;;;;15.03;8.10;;;;;;;;;;10485259;28;20327;-70
2021/04/25 05:16:30;;;;;;;13.80;7.63;;;;;;;;;;10484044;28;20211;-71
2021/04/25 05:21:32;;;;;;;13.20;7.70;;;;;;;;;;10475909;28;20216;-70
2021/04/25 05:26:34;;;;;;;15.43;9.00;;;;;;;;;;10485865;28;20196;-69
2021/04/25 05:31:36;;;;;;;14.77;8.83;;;;;;;;;;10477982;28;20216;-70
2021/04/25 05:36:38;;;;;;;14.63;8.83;;;;;;;;;;10492608;28;20262;-70
2021/04/25 05:41:41;;;;;;;14.87;9.33;;;;;;;;;;10486522;28;20220;-72
2021/04/25 05:46:42;;;;;;;14.73;9.77;;;;;;;;;;10484942;28;20224;-68
2021/04/25 05:51:44;;;;;;;18.50;10.23;;;;;;;;;;10490290;28;20212;-72
2021/04/25 05:56:47;;;;;;;17.97;10.27;;;;;;;;;;10482861;28;20238;-71
2021/04/25 06:01:48;;;;;;;18.10;9.90;;;;;;;;;;10491838;28;20583;-70
2021/04/25 06:06:50;;;;;;;15.37;10.13;;;;;;;;;;10481281;28;20291;-70
2021/04/25 06:11:52;;;;;;;16.40;10.67;;;;;;;;;;10482422;28;20228;-71
2021/04/25 06:16:54;;;;;;;17.93;10.70;;;;;;;;;;10484867;28;20581;-71
2021/04/25 06:21:55;;;;;;;17.47;10.37;;;;;;;;;;10481366;28;20209;-71
2021/04/25 06:26:58;;;;;;;19.10;10.67;;;;;;;;;;10486368;28;20239;-69
2021/04/25 06:32:03;;;;;;;16.63;11.13;;;;;;;;;;10484964;28;20640;-70
2021/04/25 06:37:05;;;;;;;17.20;10.73;;;;;;;;;;10485621;28;20192;-72
2021/04/25 06:42:08;;;;;;;16.63;10.90;;;;;;;;;;10487975;28;20257;-71
2021/04/25 06:47:09;;;;;;;16.37;10.77;;;;;;;;;;10482424;28;20649;-71
2021/04/25 06:52:12;;;;;;;17.13;11.27;;;;;;;;;;10482670;28;20317;-69
2021/04/25 06:57:14;;;;;;;15.50;10.73;;;;;;;;;;10479897;28;20245;-72
2021/04/25 07:02:16;;;;;;;15.83;10.10;;;;;;;;;;10484502;28;20228;-72
2021/04/25 07:07:18;;;;;;;17.00;10.10;;;;;;;;;;10476337;28;20694;-71
2021/04/25 07:12:24;;;;;;;14.10;9.47;;;;;;;;;;10479228;28;20212;-71
2021/04/25 07:17:25;;;;;;;14.67;10.00;;;;;;;;;;10478955;28;20471;-70
2021/04/25 07:22:27;;;;;;;13.63;9.83;;;;;;;;;;10488614;28;20217;-71
2021/04/25 07:27:30;;;;;;;15.47;10.60;;;;;;;;;;10485786;28;20575;-70
2021/04/25 07:32:31;;;;;;;12.73;10.10;;;;;;;;;;10480158;28;20319;-71
2021/04/25 07:37:33;;;;;;;13.18;10.00;;;;;;;;;;10484597;28;20236;-72
2021/04/25 07:42:36;;;;;;;14.05;10.20;;;;;;;;;;10479830;28;20220;-71
2021/04/25 07:47:37;;;;;;;15.00;10.32;;;;;;;;;;10480096;28;20213;-70
2021/04/25 07:52:39;;;;;;;13.32;10.32;;;;;;;;;;10485847;28;20268;-72
2021/04/25 07:57:42;;;;;;;12.85;9.93;;;;;;;;;;10480886;28;20188;-72
2021/04/25 08:02:46;;;;;;;12.20;10.10;;;;;;;;;;10473462;28;20917;-73
2021/04/25 08:07:48;;;;;;;13.20;10.25;;;;;;;;;;10486811;28;20236;-73
2021/04/25 08:12:51;;;;;;;16.75;13.60;;;;;;;;;;10478495;28;20352;-72
2021/04/25 08:17:56;;;;;;;14.85;11.63;;;;;;;;;;10479776;28;20289;-72
2021/04/25 08:22:57;;;;;;;13.05;10.57;;;;;;;;;;10487487;28;20251;-72
2021/04/25 08:28:00;;;;;;;12.88;10.50;;;;;;;;;;10482227;28;20212;-73
2021/04/25 08:33:02;;;;;;;12.85;10.73;;;;;;;;;;10488860;28;20651;-72
2021/04/25 08:38:03;;;;;;;11.63;10.43;;;;;;;;;;10481854;28;20184;-72
2021/04/25 08:43:07;;;;;;;15.57;12.70;;;;;;;;;;10489890;28;20208;-73
2021/04/25 08:48:11;;;;;;;14.23;10.63;;;;;;;;;;10496887;28;20306;-73
2021/04/25 08:53:13;;;;;;;12.90;9.77;;;;;;;;;;10521243;27;20652;-73
2021/04/25 08:58:21;;;;;;;13.88;10.20;;;;;;;;;;10485262;28;20223;-72
2021/04/25 09:03:22;;;;;;;12.18;10.43;;;;;;;;;;10478052;28;20565;-72
2021/04/25 09:08:40;;;;;;;12.00;10.27;;;;;;;;;;10481812;28;20208;-72
2021/04/25 09:13:42;;;;;;;12.32;9.73;;;;;;;;;;10480700;28;20694;-73
2021/04/25 09:18:44;;;;;;;12.23;9.80;;;;;;;;;;10484828;28;20626;-72
2021/04/25 09:23:46;;;;;;;12.05;9.85;;;;;;;;;;10481087;28;20209;-70
2021/04/25 09:28:59;;;;;;;13.25;10.23;;;;;;;;;;10484428;28;20208;-72
2021/04/25 09:34:05;;;;;;;13.00;10.30;;;;;;;;;;10473419;28;20258;-71
2021/04/25 09:39:11;;;;;;;11.30;10.10;;;;;;;;;;10478683;28;20295;-67
2021/04/25 09:44:33;;;;;;;13.27;10.02;;;;;;;;;;10477520;28;20227;-71
2021/04/25 09:49:42;;;;;;;11.52;8.55;;;;;;;;;;10482487;28;20888;-70
2021/04/25 09:54:43;;;;;;;11.30;8.50;;;;;;;;;;10482455;28;20324;-71
2021/04/25 09:59:52;;;;;;;12.55;9.65;;;;;;;;;;10488855;28;20660;-72
2021/04/25 10:04:54;;;;;;;12.05;9.05;;;;;;;;;;10485305;28;20189;-72
2021/04/25 10:10:08;;;;;;;11.23;8.75;;;;;;;;;;10485708;28;20242;-71
2021/04/25 10:15:11;;;;;;;11.13;9.13;;;;;;;;;;10476280;28;20192;-70
2021/04/25 10:20:15;;;;;;;11.75;9.15;;;;;;;;;;10481781;28;20284;-71
2021/04/25 10:25:18;;;;;;;11.27;8.95;;;;;;;;;;10481205;28;20192;-69
2021/04/25 10:30:21;;;;;;;11.85;9.18;;;;;;;;;;10483079;28;20667;-71
2021/04/25 10:35:23;;;;;;;11.40;9.05;;;;;;;;;;10478671;28;20201;-71
2021/04/25 10:40:28;;;;;;;11.40;9.00;;;;;;;;;;10480376;28;20639;-71
2021/04/25 10:45:33;;;;;;;10.90;9.38;;;;;;;;;;10487794;28;20200;-71
2021/04/25 10:50:40;;;;;;;14.10;9.05;;;;;;;;;;10484412;28;20227;-70
2021/04/25 10:55:41;;;;;;;13.13;11.20;;;;;;;;;;10485184;28;20223;-70
2021/04/25 11:00:45;;;;;;;12.88;8.65;;;;;;;;;;10482477;28;20220;-71
2021/04/25 11:05:47;;;;;;;11.73;8.93;;;;;;;;;;10471400;28;20276;-71
2021/04/25 11:10:49;;;;;;;11.68;8.68;;;;;;;;;;10485207;28;20324;-71
2021/04/25 11:15:56;;;;;;;11.65;8.23;;;;;;;;;;10475115;28;20192;-72
2021/04/25 11:20:57;;;;;;;12.40;8.23;;;;;;;;;;10474356;28;20529;-71
2021/04/25 11:25:59;;;;;;;14.20;8.57;;;;;;;;;;10476745;28;20196;-72
2021/04/25 11:31:01;;;;;;;12.85;9.27;;;;;;;;;;10484242;28;20244;-69
2021/04/25 11:36:30;;;;;;;13.77;8.95;;;;;;;;;;10479967;28;20292;-71
2021/04/25 11:41:32;;;;;;;10.95;7.88;;;;;;;;;;10447181;28;20326;-70
2021/04/25 11:46:35;;;;;;;10.80;8.27;;;;;;;;;;10489193;28;20630;-70
2021/04/25 11:51:41;;;;;;;11.20;8.63;;;;;;;;;;10491906;28;20239;-71
2021/04/25 11:56:43;;;;;;;9.93;8.27;;;;;;;;;;10490657;28;20219;-70
2021/04/25 12:01:45;;;;;;;10.68;8.57;;;;;;;;;;10492986;28;20204;-70
2021/04/25 12:06:48;;;;;;;11.88;8.38;;;;;;;;;;10490752;28;20200;-70
2021/04/25 12:11:49;;;;;;;11.25;7.60;;;;;;;;;;10486808;28;20254;-69
2021/04/25 12:17:09;;;;;;;10.60;7.70;;;;;;;;;;10467110;28;20266;-70
2021/04/25 12:22:11;;;;;;;9.80;7.30;;;;;;;;;;10466556;28;20251;-70
2021/04/25 12:27:12;;;;;;;11.57;8.55;;;;;;;;;;10476895;28;20196;-70
2021/04/25 12:32:17;;;;;;;10.55;6.95;;;;;;;;;;10506360;28;20208;-71
2021/04/25 12:37:19;;;;;;;11.35;6.88;;;;;;;;;;10514338;28;20257;-70
2021/04/25 12:42:21;;;;;;;8.50;5.95;;;;;;;;;;10483099;28;20212;-68
2021/04/25 12:47:34;;;;;;;9.95;5.65;;;;;;;;;;10490714;28;20211;-70
2021/04/25 12:52:35;;;;;;;8.95;5.97;;;;;;;;;;10487519;28;20283;-70
2021/04/25 12:57:37;;;;;;;10.52;6.60;;;;;;;;;;10482081;28;20567;-69
2021/04/25 13:02:40;;;;;;;10.20;6.03;;;;;;;;;;10462423;28;20222;-69
2021/04/25 13:07:43;;;;;;;9.50;6.15;;;;;;;;;;10461226;28;20264;-70
2021/04/25 13:12:45;;;;;;;8.90;5.40;;;;;;;;;;10460125;28;20221;-70
2021/04/25 13:17:54;;;;;;;7.88;5.05;;;;;;;;;;10459665;28;20667;-68
2021/04/25 13:22:58;;;;;;;8.13;5.07;;;;;;;;;;10463533;28;20560;-69
2021/04/25 13:28:00;;;;;;;9.55;5.57;;;;;;;;;;10464553;28;20252;-70
2021/04/25 13:33:03;;;;;;;8.18;4.38;;;;;;;;;;10485043;28;20212;-70
2021/04/25 13:38:05;;;;;;;8.60;5.20;;;;;;;;;;10465964;28;20285;-71
2021/04/25 13:43:07;;;;;;;7.97;4.45;;;;;;;;;;10457652;28;20217;-71
2021/04/25 13:48:10;;;;;;;8.77;4.15;;;;;;;;;;10458177;28;20247;-69
2021/04/25 13:53:11;;;;;;;7.80;4.00;;;;;;;;;;10465886;28;20209;-71
2021/04/25 13:58:14;;;;;;;8.50;4.63;;;;;;;;;;10482885;28;20188;-71
2021/04/25 14:03:16;;;;;;;9.18;4.40;;;;;;;;;;10459512;28;20758;-71
2021/04/25 14:08:18;;;;;;;7.85;4.45;;;;;;;;;;10467243;28;20295;-70
2021/04/25 14:13:19;;;;;;;9.60;4.65;;;;;;;;;;10473083;28;20262;-71
2021/04/25 14:18:22;;;;;;;10.02;4.70;;;;;;;;;;10474264;28;20202;-69
2021/04/25 14:23:24;;;;;;;8.80;4.00;;;;;;;;;;10460957;28;20219;-70
2021/04/25 14:28:26;;;;;;;7.00;4.03;;;;;;;;;;10458431;28;20220;-68
2021/04/25 14:33:29;;;;;;;7.90;4.40;;;;;;;;;;10466510;28;20224;-70
2021/04/25 14:38:46;;;;;;;7.15;4.00;;;;;;;;;;10464455;28;20198;-69
2021/04/25 14:43:48;;;;;;;7.93;3.92;;;;;;;;;;10448247;28;20746;-71
2021/04/25 14:48:51;;;;;;;8.63;4.10;;;;;;;;;;10456248;28;20219;-70
2021/04/25 14:53:53;;;;;;;7.93;4.32;;;;;;;;;;10473963;28;20212;-71
2021/04/25 14:58:54;;;;;;;12.10;4.43;;;;;;;;;;10454070;28;20276;-71
2021/04/25 15:03:58;;;;;;;8.68;4.18;;;;;;;;;;10467729;28;20216;-70
2021/04/25 15:09:00;;;;;;;8.00;4.28;;;;;;;;;;10461229;28;22290;-69
2021/04/25 15:14:01;;;;;;;8.75;4.18;;;;;;;;;;10460032;28;20211;-70
2021/04/25 15:19:04;;;;;;;7.60;3.92;;;;;;;;;;10480744;28;20196;-70
2021/04/25 15:24:06;;;;;;;7.37;4.37;;;;;;;;;;10483692;28;20584;-70
2021/04/25 15:29:08;;;;;;;11.40;6.60;;;;;;;;;;10482504;28;20234;-70
2021/04/25 15:34:23;;;;;;;8.63;4.00;;;;;;;;;;10474391;28;20235;-69
2021/04/25 15:39:24;;;;;;;7.47;3.70;;;;;;;;;;10483749;28;20196;-72
2021/04/25 15:44:26;;;;;;;7.87;4.10;;;;;;;;;;10479731;28;20223;-71
2021/04/25 15:49:28;;;;;;;8.53;3.83;;;;;;;;;;10475165;28;20644;-70
2021/04/25 15:54:30;;;;;;;8.30;4.20;;;;;;;;;;10483832;28;20204;-71
2021/04/25 15:59:31;;;;;;;11.47;4.10;;;;;;;;;;10478414;28;20617;-71
2021/04/25 16:04:34;;;;;;;8.23;3.90;;;;;;;;;;10462740;28;20196;-70
2021/04/25 16:09:35;;;;;;;6.43;3.27;;;;;;;;;;10469054;28;20773;-69
2021/04/25 16:14:37;;;;;;;6.80;2.93;;;;;;;;;;10481307;28;20185;-70
2021/04/25 16:19:40;;;;;;;5.80;3.00;;;;;;;;;;10478339;28;20284;-71
2021/04/25 16:24:41;;;;;;;6.67;2.87;;;;;;;;;;10482654;28;20219;-71
2021/04/25 16:29:44;;;;;;;6.33;2.97;;;;;;;;;;10491081;28;20261;-71
2021/04/25 16:34:48;;;;;;;6.67;3.00;;;;;;;;;;10491061;28;20629;-71
2021/04/25 16:39:50;;;;;;;5.03;2.73;;;;;;;;;;10494671;28;20216;-71
2021/04/25 16:44:51;;;;;;;6.90;2.80;;;;;;;;;;10494933;28;20207;-70
2021/04/25 16:49:54;;;;;;;5.80;2.70;;;;;;;;;;10494254;28;20493;-71
2021/04/25 16:54:56;;;;;;;6.33;2.70;;;;;;;;;;10522983;28;20213;-71
2021/04/25 16:59:58;;;;;;;5.30;2.47;;;;;;;;;;10489992;28;20204;-72
2021/04/25 17:05:00;;;;;;;7.10;2.60;;;;;;;;;;10492082;28;20284;-72
2021/04/25 17:10:03;;;;;;;7.13;2.53;;;;;;;;;;10489144;28;20718;-69
2021/04/25 17:15:05;;;;;;;4.77;2.30;;;;;;;;;;10490059;28;20537;-72
2021/04/25 17:20:09;;;;;;;7.30;2.47;;;;;;;;;;10493787;28;20278;-71
2021/04/25 17:25:11;;;;;;;7.37;2.53;;;;;;;;;;10485032;28;20261;-71
2021/04/25 17:30:14;;;;;;;6.60;2.80;;;;;;;;;;10493613;28;20216;-70
2021/04/25 17:35:17;;;;;;;5.80;2.27;;;;;;;;;;10502299;28;20226;-69
2021/04/25 17:40:23;;;;;;;5.70;2.30;;;;;;;;;;10526942;27;20291;-70
2021/04/25 17:45:24;;;;;;;4.90;2.13;;;;;;;;;;10484555;28;20215;-72
2021/04/25 17:50:28;;;;;;;5.77;2.37;;;;;;;;;;10472175;28;20220;-71
2021/04/25 17:55:30;;;;;;;6.50;2.37;;;;;;;;;;10487075;28;20276;-72
2021/04/25 18:00:32;;;;;;;5.67;2.00;;;;;;;;;;10497434;28;20307;-71
2021/04/25 18:05:35;;;;;;;6.00;1.83;;;;;;;;;;10472141;28;20200;-71
2021/04/25 18:10:37;;;;;;;6.93;2.37;;;;;;;;;;10468532;28;20338;-70
2021/04/25 18:15:39;;;;;;;7.63;2.60;;;;;;;;;;10457064;28;20714;-71
2021/04/25 18:20:41;;;;;;;5.43;2.27;;;;;;;;;;10468037;28;20207;-71
2021/04/25 18:25:43;;;;;;;6.67;2.30;;;;;;;;;;10490512;28;20197;-70
2021/04/25 18:30:45;;;;;;;7.50;2.57;;;;;;;;;;10488241;28;20254;-70
2021/04/25 18:35:48;;;;;;;7.10;2.47;;;;;;;;;;10486607;28;20192;-71
2021/04/25 18:40:51;;;;;;;5.43;2.07;;;;;;;;;;10485313;28;20304;-70
2021/04/25 18:45:53;;;;;;;5.77;2.30;;;;;;;;;;10482960;28;20686;-69
2021/04/25 18:50:56;;;;;;;5.83;2.20;;;;;;;;;;10490976;28;20283;-71
2021/04/25 18:55:57;;;;;;;6.93;2.60;;;;;;;;;;10501459;28;20629;-71
2021/04/25 19:00:59;;;;;;;5.97;2.33;;;;;;;;;;10487586;28;20216;-70
2021/04/25 19:06:02;;;;;;;6.90;2.33;;;;;;;;;;10492605;28;20198;-71
2021/04/25 19:11:05;;;;;;;4.80;1.97;;;;;;;;;;10476482;28;20619;-72
2021/04/25 19:16:07;;;;;;;7.93;2.40;;;;;;;;;;10502847;28;20245;-70
2021/04/25 19:21:10;;;;;;;4.33;2.07;;;;;;;;;;10499077;28;20200;-70
2021/04/25 19:26:13;;;;;;;6.33;2.57;;;;;;;;;;10471173;28;20196;-71
2021/04/25 19:31:16;;;;;;;6.40;1.90;;;;;;;;;;10490034;28;20311;-71
2021/04/25 19:36:19;;;;;;;6.33;2.30;;;;;;;;;;10472811;28;20192;-72
2021/04/25 19:41:23;;;;;;;8.13;3.53;;;;;;;;;;10478045;28;20240;-70
2021/04/25 19:46:24;;;;;;;6.70;2.47;;;;;;;;;;10489983;28;20714;-71
2021/04/25 19:51:27;;;;;;;4.93;1.93;;;;;;;;;;10475281;28;20727;-69
2021/04/25 19:56:29;;;;;;;5.23;2.10;;;;;;;;;;10478351;28;20248;-71
2021/04/25 20:01:30;;;;;;;4.27;2.37;;;;;;;;;;10474522;28;20611;-70
2021/04/25 20:06:33;;;;;;;5.87;2.40;;;;;;;;;;10483429;28;20192;-68
2021/04/25 20:11:35;;;;;;;5.70;2.10;;;;;;;;;;10480359;28;20251;-70
2021/04/25 20:16:37;;;;;;;6.10;2.30;;;;;;;;;;10473604;28;20271;-68
2021/04/25 20:21:40;;;;;;;6.33;2.20;;;;;;;;;;10472462;28;20216;-70
2021/04/25 20:26:41;;;;;;;4.73;2.27;;;;;;;;;;10469875;28;20232;-68
2021/04/25 20:31:43;;;;;;;6.53;2.47;;;;;;;;;;10452914;28;20285;-68
2021/04/25 20:36:45;;;;;;;6.73;2.20;;;;;;;;;;10459880;28;20204;-70
2021/04/25 20:41:47;;;;;;;6.27;2.30;;;;;;;;;;10474549;28;20549;-69
2021/04/25 20:46:49;;;;;;;9.17;2.93;;;;;;;;;;10472789;28;20270;-68
2021/04/25 20:51:51;;;;;;;8.27;2.30;;;;;;;;;;10488261;28;20216;-71
2021/04/25 20:56:53;;;;;;;6.47;2.60;;;;;;;;;;10469392;28;20527;-71
2021/04/25 21:01:54;;;;;;;6.67;2.83;;;;;;;;;;10475849;28;20286;-71
2021/04/25 21:06:57;;;;;;;7.87;2.83;;;;;;;;;;10477457;28;20276;-71
2021/04/25 21:11:59;;;;;;;7.60;3.00;;;;;;;;;;10491501;28;20302;-71
2021/04/25 21:17:01;;;;;;;6.97;2.67;;;;;;;;;;10501765;28;20458;-71
2021/04/25 21:22:03;;;;;;;7.50;2.83;;;;;;;;;;10493554;28;20299;-71
2021/04/25 21:27:05;;;;;;;7.60;2.77;;;;;;;;;;10499110;28;20279;-69
2021/04/25 21:32:07;;;;;;;10.10;2.80;;;;;;;;;;10493052;28;20243;-69
2021/04/25 21:37:10;;;;;;;7.17;2.93;;;;;;;;;;10506352;28;20192;-70
2021/04/25 21:42:11;;;;;;;6.30;2.90;;;;;;;;;;10496066;28;20742;-70
2021/04/25 21:47:13;;;;;;;8.70;4.00;;;;;;;;;;10505242;28;20204;-70
2021/04/25 21:52:15;;;;;;;9.57;3.40;;;;;;;;;;10498317;28;20243;-70
2021/04/25 21:57:17;;;;;;;9.03;2.80;;;;;;;;;;10499327;28;20250;-69
2021/04/25 22:02:18;;;;;;;7.00;2.73;;;;;;;;;;10501535;28;20821;-70
2021/04/25 22:07:26;;;;;;;5.77;2.47;;;;;;;;;;10501140;28;20188;-70
2021/04/25 22:12:29;;;;;;;6.10;2.30;;;;;;;;;;10493800;28;20656;-70
2021/04/25 22:17:31;;;;;;;6.67;2.90;;;;;;;;;;10500585;28;20261;-70
2021/04/25 22:22:33;;;;;;;7.03;2.53;;;;;;;;;;10501015;28;20656;-70
2021/04/25 22:27:35;;;;;;;7.30;2.80;;;;;;;;;;10500295;28;20283;-70
2021/04/25 22:32:37;;;;;;;6.67;2.80;;;;;;;;;;10504869;28;20254;-69
2021/04/25 22:37:40;;;;;;;7.67;3.50;;;;;;;;;;10501501;28;20277;-69
2021/04/25 22:42:42;;;;;;;8.83;3.20;;;;;;;;;;10489706;28;20200;-69
2021/04/25 22:47:43;;;;;;;7.53;2.77;;;;;;;;;;10492728;28;20200;-70
2021/04/25 22:52:46;;;;;;;5.77;3.10;;;;;;;;;;10500357;28;20226;-69
2021/04/25 22:57:48;;;;;;;7.53;2.87;;;;;;;;;;10499055;28;20240;-71
2021/04/25 23:02:50;;;;;;;7.67;2.83;;;;;;;;;;10483226;28;20304;-71
2021/04/25 23:07:52;;;;;;;6.80;2.90;;;;;;;;;;10484249;28;20198;-71
2021/04/25 23:12:54;;;;;;;7.83;2.83;;;;;;;;;;10474376;28;20208;-70
2021/04/25 23:17:55;;;;;;;7.03;2.80;;;;;;;;;;10481559;28;20229;-70
2021/04/25 23:23:00;;;;;;;7.33;2.90;;;;;;;;;;10483428;28;20207;-70
2021/04/25 23:28:01;;;;;;;8.73;2.97;;;;;;;;;;10481431;28;20192;-70
2021/04/25 23:33:03;;;;;;;6.67;2.70;;;;;;;;;;10484571;28;20208;-70
2021/04/25 23:38:05;;;;;;;8.43;3.10;;;;;;;;;;10479046;28;20468;-69
2021/04/25 23:43:07;;;;;;;7.70;2.90;;;;;;;;;;10478107;28;20292;-70
2021/04/25 23:48:09;;;;;;;7.27;3.03;;;;;;;;;;10476007;28;20208;-70
2021/04/25 23:53:11;;;;;;;6.87;3.00;;;;;;;;;;10473138;28;20730;-69
2021/04/25 23:58:13;;;;;;;6.33;3.00;;;;;;;;;;10479153;28;20189;-70
